Portada
METAR-TAF:

METAR-TAF

Aeroports :

Castres, França

latitud: 43-33-25N, longitud: 2-17-21E, altitud: 239 m

Observació

L'informe es va fer fa 28 minuts, a les 05:00 UTC
Vent 27 kt del Est/Sud-Est amb ràfegues de 38 kt
Temperatura 19°C
Humitat 78%
Pressió 1014 hPa
Visibilitat 10 km o més
sense núvols per sota de 1500 mi sense presència de cumulonimbus.

METAR: LFCK 140500Z AUTO 12027G38KT CAVOK 19/15 Q1014

Hora: 07:28 (05:28 UTC)

Pronòstic

L'informe es va fer fa 12 hores i 28 minuts, a les 17:00 UTC
Pronòstic vàlid del 13 a les 18 UTC al 14 a les 03 UTC
Vent 25 kt del Est/Sud-Est amb ràfegues de 35 kt
Visibilitat 10 km o més
sense núvols per sota de 1500 mi sense presència de cumulonimbus.
Temporalment
l' 13 a les 18 UTC al 13 a les 21 UTC
Vent 30 kt del Est/Sud-Est amb ràfegues de 44 kt

TAF: LFCK 131700Z 1318/1403 12025G35KT CAVOK TEMPO 1318/1321 12030G44KT

Observacions i pronòstics meteorològics de més de 4000 aeroports (METAR i TAF).

Les estacions disponibles són els punts grocs i vermells al mapa.

Posi el ratolí al punt desitjat per veure el nom de l'estació.

Feu clic per veure les observacions i els pronòstics meteorològics.

Per canviar el mapa: feu clic els botons verds amb una creu de color negre per apropar; al botó verd amb un guió per allunyar la imatge; o en les fletxes verdes per a mapes adjacents.


METAR-TAF: